createdAt,value
2017-04-16T00:01:12.502Z,12.89
2017-04-16T00:01:54.621Z,12.78
2017-04-16T00:02:34.342Z,12.83
2017-04-16T00:03:14.847Z,12.85
2017-04-16T00:03:55.337Z,12.86
2017-04-16T00:04:35.884Z,12.85
2017-04-16T00:05:16.367Z,12.78
2017-04-16T00:05:56.895Z,12.79
2017-04-16T00:06:37.340Z,12.89
2017-04-16T00:07:17.829Z,12.74
2017-04-16T00:07:58.304Z,12.85
2017-04-16T00:08:38.792Z,12.75
2017-04-16T00:09:19.273Z,12.72
2017-04-16T00:09:59.816Z,12.78
2017-04-16T00:10:40.296Z,12.86
2017-04-16T00:11:20.819Z,12.78
2017-04-16T00:12:01.271Z,12.78
2017-04-16T00:12:41.800Z,12.89
2017-04-16T00:13:22.239Z,12.92
2017-04-16T00:14:02.750Z,12.93
2017-04-16T00:14:43.222Z,12.83
2017-04-16T00:15:23.752Z,13
2017-04-16T00:16:04.233Z,12.95
2017-04-16T00:16:44.734Z,12.96
2017-04-16T00:17:25.251Z,12.9
2017-04-16T00:18:05.770Z,12.93
2017-04-16T00:18:46.246Z,12.95
2017-04-16T00:19:26.743Z,12.89
2017-04-16T00:20:07.255Z,12.89
2017-04-16T00:20:47.785Z,12.89
2017-04-16T00:21:28.197Z,12.85
2017-04-16T00:22:08.763Z,12.82
2017-04-16T00:22:49.272Z,12.83
2017-04-16T00:23:29.781Z,12.85
2017-04-16T00:24:10.230Z,12.85
2017-04-16T00:24:50.748Z,12.82
2017-04-16T00:25:31.244Z,12.87
2017-04-16T00:26:11.737Z,12.93
2017-04-16T00:26:52.297Z,12.89
2017-04-16T00:27:32.741Z,12.9
2017-04-16T00:28:13.245Z,12.82
2017-04-16T00:28:53.792Z,12.78
2017-04-16T00:29:34.292Z,12.89
2017-04-16T00:30:14.769Z,12.86
2017-04-16T00:30:55.277Z,12.78
2017-04-16T00:31:35.748Z,12.87
2017-04-16T00:32:16.271Z,12.87
2017-04-16T00:32:56.731Z,12.78
2017-04-16T00:33:37.268Z,12.89
2017-04-16T00:34:17.738Z,12.79
2017-04-16T00:34:58.308Z,12.87
2017-04-16T00:35:38.830Z,12.79
2017-04-16T00:36:19.316Z,12.87
2017-04-16T00:36:59.801Z,12.85
2017-04-16T00:37:40.307Z,12.82
2017-04-16T00:38:20.778Z,12.82
2017-04-16T00:39:01.288Z,12.78
2017-04-16T00:39:41.794Z,12.71
2017-04-16T00:40:22.249Z,12.83
2017-04-16T00:41:03.653Z,12.7
2017-04-16T00:41:44.177Z,12.85
2017-04-16T00:42:24.618Z,12.75
2017-04-16T00:43:05.121Z,12.86
2017-04-16T00:43:45.629Z,12.86
2017-04-16T00:45:39.770Z,12.86
2017-04-16T00:46:20.825Z,12.82
2017-04-16T00:47:00.823Z,12.87
2017-04-16T00:47:41.254Z,12.83
2017-04-16T00:48:21.737Z,12.83
2017-04-16T00:49:02.229Z,12.83
2017-04-16T00:49:42.737Z,12.87
2017-04-16T00:50:23.234Z,12.7
2017-04-16T00:51:03.705Z,12.74
2017-04-16T00:51:44.231Z,12.68
2017-04-16T00:52:24.718Z,12.74
2017-04-16T00:53:05.198Z,12.74
2017-04-16T00:53:45.698Z,12.75
2017-04-16T00:54:26.181Z,12.74
2017-04-16T00:55:06.659Z,12.77
2017-04-16T00:55:47.141Z,12.77
2017-04-16T00:56:27.629Z,12.75
2017-04-16T00:57:08.119Z,12.89
2017-04-16T00:57:48.594Z,12.85
2017-04-16T00:58:29.082Z,12.79
2017-04-16T00:59:09.592Z,13
2017-04-16T00:59:50.103Z,12.95
2017-04-16T01:00:30.589Z,13.01
2017-04-16T01:01:11.096Z,12.95
2017-04-16T01:01:51.533Z,12.96
2017-04-16T01:02:32.047Z,13.03
2017-04-16T01:03:12.517Z,13.01
2017-04-16T01:03:53.018Z,13.08
2017-04-16T01:04:33.504Z,13.11
2017-04-16T01:05:14.000Z,13.11
2017-04-16T01:05:54.502Z,13.1
2017-04-16T01:06:35.052Z,13.1
2017-04-16T01:07:15.543Z,13.08
2017-04-16T01:07:56.036Z,13.08
2017-04-16T01:08:36.555Z,13.05
2017-04-16T01:09:17.111Z,13.1
2017-04-16T01:09:57.529Z,13.1
2017-04-16T01:10:38.015Z,13.12
2017-04-16T01:11:18.510Z,13.1
2017-04-16T01:11:59.040Z,13.07
2017-04-16T01:12:39.540Z,13.1
2017-04-16T01:13:19.984Z,13.08
2017-04-16T01:14:00.531Z,13.11
2017-04-16T01:14:40.994Z,13.11
2017-04-16T01:15:21.477Z,13.08
2017-04-16T01:16:01.986Z,13.12
2017-04-16T01:16:42.488Z,13.17
2017-04-16T01:17:22.987Z,13.07
2017-04-16T01:18:03.489Z,13.19
2017-04-16T01:18:43.952Z,13.15
2017-04-16T01:19:24.447Z,13.1
2017-04-16T01:20:04.972Z,13.12
2017-04-16T01:20:45.440Z,13.14
2017-04-16T01:21:25.936Z,13.12
2017-04-16T01:22:06.423Z,13.08
2017-04-16T01:24:04.808Z,13.23
2017-04-16T01:24:45.577Z,13.12
2017-04-16T01:25:26.042Z,13.15
2017-04-16T01:26:06.546Z,13.12
2017-04-16T01:26:47.054Z,13.07
2017-04-16T01:27:27.549Z,13.01
2017-04-16T01:28:08.213Z,13.05
2017-04-16T01:28:48.678Z,12.96
2017-04-16T01:29:29.215Z,13.1
2017-04-16T01:30:09.690Z,13.12
2017-04-16T01:30:50.214Z,13.04
2017-04-16T01:31:30.689Z,13.1
2017-04-16T01:32:11.170Z,13.03
2017-04-16T01:32:51.668Z,13.08
2017-04-16T01:33:32.190Z,13.1
2017-04-16T01:34:12.688Z,13.07
2017-04-16T01:34:53.157Z,13.11
2017-04-16T01:35:33.709Z,13.11
2017-04-16T01:36:14.188Z,13.23
2017-04-16T01:36:54.669Z,13.23
2017-04-16T01:37:35.169Z,13.23
2017-04-16T01:38:15.678Z,13.19
2017-04-16T01:38:56.204Z,13.23
2017-04-16T01:39:36.697Z,13.33
2017-04-16T01:40:17.202Z,13.3
2017-04-16T01:40:57.686Z,13.28
2017-04-16T01:41:38.183Z,13.23
2017-04-16T01:42:18.667Z,13.28
2017-04-16T01:42:59.188Z,13.25
2017-04-16T01:43:39.699Z,13.19
2017-04-16T01:44:20.164Z,13.22
2017-04-16T01:45:00.640Z,13.17
2017-04-16T01:45:41.113Z,13.23
2017-04-16T01:46:21.643Z,13.22
2017-04-16T01:47:02.121Z,13.23
2017-04-16T01:47:42.578Z,13.22
2017-04-16T01:48:23.080Z,13.19
2017-04-16T01:49:03.560Z,13.22
2017-04-16T01:49:44.090Z,13.2
2017-04-16T01:50:24.582Z,13.19
2017-04-16T01:51:05.089Z,13.19
2017-04-16T01:51:45.549Z,13.11
2017-04-16T01:52:26.076Z,13.14
2017-04-16T01:53:06.550Z,13.11
2017-04-16T01:53:47.056Z,13.15
2017-04-16T01:54:27.595Z,13.17
2017-04-16T01:55:08.052Z,13.07
2017-04-16T01:55:48.547Z,13.1
2017-04-16T01:56:29.078Z,13.11
2017-04-16T01:57:09.577Z,13.11
2017-04-16T01:57:50.054Z,13.1
2017-04-16T01:58:30.547Z,13.14
2017-04-16T01:59:11.078Z,12.95
2017-04-16T01:59:51.568Z,13.01
2017-04-16T02:00:32.095Z,13
2017-04-16T02:01:12.589Z,13.05
2017-04-16T02:01:53.083Z,13.07
2017-04-16T02:02:33.597Z,13.11
2017-04-16T02:03:14.070Z,13.11
2017-04-16T02:03:54.605Z,13.12
2017-04-16T02:04:35.057Z,13.19
2017-04-16T02:05:15.585Z,13.12
2017-04-16T02:05:56.088Z,13.19
2017-04-16T02:06:36.591Z,13.26
2017-04-16T02:07:17.137Z,13.22
2017-04-16T02:07:57.608Z,13.2
2017-04-16T02:08:38.090Z,13.19
2017-04-16T02:09:18.639Z,13.2
2017-04-16T02:09:59.092Z,13.1
2017-04-16T02:10:39.602Z,13.12
2017-04-16T02:11:20.088Z,13.25
2017-04-16T02:12:00.584Z,13.23
2017-04-16T02:12:41.073Z,13.17
2017-04-16T02:13:21.583Z,13.19
2017-04-16T02:14:02.082Z,13.17
2017-04-16T02:14:42.588Z,13.19
2017-04-16T02:15:23.085Z,13.25
2017-04-16T02:16:03.568Z,13.23
2017-04-16T02:16:44.095Z,13.1
2017-04-16T02:17:24.613Z,13.12
2017-04-16T02:18:05.777Z,13.19
2017-04-16T02:18:45.611Z,13.19
2017-04-16T02:19:26.070Z,13.23
2017-04-16T02:20:06.550Z,13.11
2017-04-16T02:20:47.045Z,13.29
2017-04-16T02:21:27.540Z,13.29
2017-04-16T02:22:08.029Z,13.25
2017-04-16T02:22:48.543Z,13.2
2017-04-16T02:23:29.043Z,13.17
2017-04-16T02:24:09.518Z,13.2
2017-04-16T02:24:50.018Z,13.2
2017-04-16T02:25:30.526Z,13.14
2017-04-16T02:26:11.064Z,13.14
2017-04-16T02:26:51.497Z,13.11
2017-04-16T02:27:32.003Z,13.01
2017-04-16T02:28:12.492Z,13
2017-04-16T02:28:52.997Z,12.92
2017-04-16T02:29:33.534Z,12.82
2017-04-16T02:30:14.011Z,12.87
2017-04-16T02:30:54.515Z,12.75
2017-04-16T02:31:34.987Z,12.87
2017-04-16T02:32:15.475Z,12.82
2017-04-16T02:32:55.954Z,12.72
2017-04-16T02:33:36.428Z,12.68
2017-04-16T02:34:16.952Z,12.85
2017-04-16T02:34:57.439Z,12.74
2017-04-16T02:35:37.879Z,12.72
2017-04-16T02:36:18.358Z,12.72
2017-04-16T02:36:58.874Z,12.87
2017-04-16T02:37:39.441Z,12.86
2017-04-16T02:38:20.131Z,12.82
2017-04-16T02:39:00.596Z,12.93
2017-04-16T02:39:41.104Z,12.85
2017-04-16T02:40:21.625Z,12.83
2017-04-16T02:41:02.090Z,12.92
2017-04-16T02:41:42.657Z,12.89
2017-04-16T02:42:23.082Z,12.9
2017-04-16T02:43:03.637Z,12.95
2017-04-16T02:43:44.062Z,12.96
2017-04-16T02:44:24.544Z,12.89
2017-04-16T02:45:05.078Z,12.93
2017-04-16T02:45:45.521Z,12.79
2017-04-16T02:46:26.033Z,12.96
2017-04-16T02:47:06.521Z,12.93
2017-04-16T02:47:47.021Z,12.96
2017-04-16T02:48:27.521Z,12.82
2017-04-16T02:49:08.005Z,12.78
2017-04-16T02:49:48.522Z,12.83
2017-04-16T02:50:29.022Z,12.83
2017-04-16T02:51:09.520Z,12.83
2017-04-16T02:51:50.004Z,12.79
2017-04-16T02:52:30.530Z,12.82
2017-04-16T02:53:11.040Z,12.93
2017-04-16T02:53:51.551Z,12.83
2017-04-16T02:54:32.047Z,12.87
2017-04-16T02:55:12.474Z,12.77
2017-04-16T02:55:53.001Z,12.7
2017-04-16T02:56:33.483Z,12.72
2017-04-16T02:57:13.968Z,12.64
2017-04-16T02:57:54.499Z,12.64
2017-04-16T02:58:34.975Z,12.68
2017-04-16T02:59:15.480Z,12.56
2017-04-16T02:59:55.992Z,12.59
2017-04-16T03:00:36.453Z,12.56
2017-04-16T03:01:16.940Z,12.54
2017-04-16T03:01:57.462Z,12.52
2017-04-16T03:02:37.953Z,12.52
2017-04-16T03:03:18.468Z,12.45
2017-04-16T03:03:58.929Z,12.49
2017-04-16T03:04:39.414Z,12.53
2017-04-16T03:05:19.891Z,12.46
2017-04-16T03:06:00.391Z,12.52
2017-04-16T03:06:40.888Z,12.47
2017-04-16T03:07:21.430Z,12.53
2017-04-16T03:08:01.882Z,12.53
2017-04-16T03:08:42.439Z,12.46
2017-04-16T03:09:22.915Z,12.5
2017-04-16T03:10:03.359Z,12.56
2017-04-16T03:10:43.874Z,12.47
2017-04-16T03:11:24.364Z,12.52
2017-04-16T03:12:04.900Z,12.41
2017-04-16T03:12:45.355Z,12.41
2017-04-16T03:13:25.843Z,12.35
2017-04-16T03:14:06.344Z,12.38
2017-04-16T03:14:46.834Z,12.38
2017-04-16T03:15:27.321Z,12.34
2017-04-16T03:16:07.807Z,12.37
2017-04-16T03:16:48.315Z,12.41
2017-04-16T03:17:28.801Z,12.34
2017-04-16T03:18:09.267Z,12.37
2017-04-16T03:18:49.762Z,12.38
2017-04-16T03:19:30.309Z,12.37
2017-04-16T03:20:10.788Z,12.37
2017-04-16T03:20:51.297Z,12.52
2017-04-16T03:21:31.797Z,12.47
2017-04-16T03:22:12.281Z,12.35
2017-04-16T03:22:52.755Z,12.46
2017-04-16T03:23:33.239Z,12.29
2017-04-16T03:24:13.744Z,12.32
2017-04-16T03:24:54.266Z,12.28
2017-04-16T03:25:34.758Z,12.19
2017-04-16T03:26:15.268Z,12.28
2017-04-16T03:26:55.730Z,12.09
2017-04-16T03:27:36.214Z,12.16
2017-04-16T03:28:16.749Z,12.12
2017-04-16T03:28:57.265Z,12.14
2017-04-16T03:29:37.768Z,12.07
2017-04-16T03:30:18.285Z,12.17
2017-04-16T03:30:58.765Z,12.16
2017-04-16T03:31:39.246Z,12.13
2017-04-16T03:32:19.755Z,12.14
2017-04-16T03:33:00.242Z,12.19
2017-04-16T03:33:40.741Z,12.1
2017-04-16T03:34:21.238Z,12.17
2017-04-16T03:35:01.739Z,12.31
2017-04-16T03:35:42.240Z,12.31
2017-04-16T03:36:22.739Z,12.31
2017-04-16T03:37:03.222Z,12.42
2017-04-16T03:37:43.712Z,12.37
2017-04-16T03:38:24.191Z,12.35
2017-04-16T03:39:04.693Z,12.46
2017-04-16T03:39:45.190Z,12.32
2017-04-16T03:40:25.680Z,12.28
2017-04-16T03:41:06.192Z,12.27
2017-04-16T03:41:46.671Z,12.29
2017-04-16T03:42:27.151Z,12.35
2017-04-16T03:43:07.684Z,12.32
2017-04-16T03:43:48.155Z,12.24
2017-04-16T03:44:28.637Z,12.28
2017-04-16T03:45:09.170Z,12.16
2017-04-16T03:45:49.633Z,12.24
2017-04-16T03:46:30.120Z,12.24
2017-04-16T03:47:10.626Z,12.39
2017-04-16T03:47:51.146Z,12.35
2017-04-16T03:48:31.664Z,12.37
2017-04-16T03:49:12.179Z,12.53
2017-04-16T03:49:52.649Z,12.56
2017-04-16T03:50:33.131Z,12.6
2017-04-16T03:51:13.647Z,12.65
2017-04-16T03:51:54.123Z,12.6
2017-04-16T03:52:34.631Z,12.65
2017-04-16T03:53:15.159Z,12.59
2017-04-16T03:53:55.597Z,12.65
2017-04-16T03:54:36.107Z,12.67
2017-04-16T03:55:16.580Z,12.67
2017-04-16T03:55:57.051Z,12.62
2017-04-16T03:56:37.542Z,12.68
2017-04-16T03:57:18.044Z,12.6
2017-04-16T03:57:58.546Z,12.64
2017-04-16T03:58:39.086Z,12.64
2017-04-16T03:59:19.596Z,12.52
2017-04-16T04:00:00.008Z,12.52
2017-04-16T04:00:40.495Z,12.62
2017-04-16T04:01:21.029Z,12.56
2017-04-16T04:02:01.643Z,12.67
2017-04-16T04:02:42.140Z,12.62
2017-04-16T04:03:22.565Z,12.7
2017-04-16T04:04:03.116Z,12.67
2017-04-16T04:04:43.581Z,12.72
2017-04-16T04:05:24.087Z,12.65
2017-04-16T04:06:04.541Z,12.53
2017-04-16T04:06:45.062Z,12.62
2017-04-16T04:07:25.570Z,12.64
2017-04-16T04:08:06.023Z,12.64
2017-04-16T04:08:46.554Z,12.67
2017-04-16T04:09:27.018Z,12.67
2017-04-16T04:10:07.487Z,12.64
2017-04-16T04:10:48.012Z,12.68
2017-04-16T04:11:28.513Z,12.65
2017-04-16T04:12:08.978Z,12.62
2017-04-16T04:12:49.468Z,12.68
2017-04-16T04:13:29.970Z,12.7
2017-04-16T04:14:10.453Z,12.71
2017-04-16T04:14:50.938Z,12.72
2017-04-16T04:15:31.474Z,12.6
2017-04-16T04:16:11.950Z,12.67
2017-04-16T04:16:52.441Z,12.64
2017-04-16T04:17:32.912Z,12.39
2017-04-16T04:18:13.429Z,12.28
2017-04-16T04:18:53.891Z,12.28
2017-04-16T04:19:34.406Z,12.13
2017-04-16T04:20:14.900Z,12.09
2017-04-16T04:20:55.442Z,12.12
2017-04-16T04:21:35.915Z,11.98
2017-04-16T04:22:16.451Z,12.1
2017-04-16T04:22:56.980Z,12.13
2017-04-16T04:23:37.518Z,12.1
2017-04-16T04:24:18.018Z,12.05
2017-04-16T04:24:58.477Z,11.99
2017-04-16T04:25:39.003Z,11.99
2017-04-16T04:26:19.457Z,11.9
2017-04-16T04:27:00.002Z,11.91
2017-04-16T04:27:40.427Z,11.95
2017-04-16T04:28:20.951Z,11.96
2017-04-16T04:29:01.456Z,11.94
2017-04-16T04:29:41.932Z,11.94
2017-04-16T04:30:22.417Z,11.98
2017-04-16T04:31:02.878Z,12.04
2017-04-16T04:31:43.383Z,11.98
2017-04-16T04:32:23.933Z,12.01
2017-04-16T04:33:04.359Z,11.95
2017-04-16T04:33:44.892Z,12.01
2017-04-16T04:34:25.432Z,11.94
2017-04-16T04:35:05.950Z,11.88
2017-04-16T04:35:46.432Z,11.88
2017-04-16T04:36:26.934Z,11.79
2017-04-16T04:37:07.385Z,11.8
2017-04-16T04:37:47.907Z,11.85
2017-04-16T04:38:28.373Z,11.88
2017-04-16T04:39:08.907Z,11.95
2017-04-16T04:39:49.423Z,11.94
2017-04-16T04:40:29.887Z,11.85
2017-04-16T04:41:10.385Z,11.78
2017-04-16T04:41:50.899Z,11.86
2017-04-16T04:42:31.393Z,11.8
2017-04-16T04:43:11.876Z,11.8
2017-04-16T04:43:52.396Z,11.72
2017-04-16T04:44:32.990Z,11.75
2017-04-16T04:45:13.461Z,11.72
2017-04-16T04:45:53.966Z,11.82
2017-04-16T04:46:34.487Z,11.79
2017-04-16T04:47:14.975Z,11.73
2017-04-16T04:47:55.470Z,11.82
2017-04-16T04:48:36.230Z,11.86
2017-04-16T04:49:16.743Z,11.82
2017-04-16T04:51:10.567Z,11.99
2017-04-16T04:51:51.245Z,11.95
2017-04-16T04:52:31.779Z,11.99
2017-04-16T04:53:12.267Z,12.01
2017-04-16T04:53:52.775Z,11.98
2017-04-16T04:54:33.211Z,11.98
2017-04-16T04:55:13.692Z,11.99
2017-04-16T04:55:54.179Z,12.1
2017-04-16T04:56:34.723Z,12.07
2017-04-16T04:57:15.257Z,11.99
2017-04-16T04:57:55.672Z,12.01
2017-04-16T04:58:36.179Z,12.04
2017-04-16T04:59:16.665Z,12.01
2017-04-16T04:59:57.132Z,12.1
2017-04-16T05:00:37.629Z,12.07
2017-04-16T05:01:18.152Z,12.01
2017-04-16T05:01:58.600Z,12.07
2017-04-16T05:02:39.139Z,12.07
2017-04-16T05:03:19.607Z,12.05
2017-04-16T05:04:00.130Z,12.14
2017-04-16T05:04:40.620Z,12.13
2017-04-16T05:05:21.116Z,12.13
2017-04-16T05:06:01.627Z,12.14
2017-04-16T05:06:42.115Z,12.12
2017-04-16T05:07:22.583Z,12.12
2017-04-16T05:08:03.125Z,12.17
2017-04-16T05:08:43.595Z,12.02
2017-04-16T05:09:24.075Z,12.04
2017-04-16T05:10:04.683Z,12.05
2017-04-16T05:10:45.170Z,12.04
2017-04-16T05:11:25.698Z,12.12
2017-04-16T05:12:06.161Z,12.14
2017-04-16T05:12:46.649Z,12.28
2017-04-16T05:13:27.180Z,12.2
2017-04-16T05:14:07.645Z,12.14
2017-04-16T05:14:48.180Z,12.13
2017-04-16T05:15:28.674Z,12.1
2017-04-16T05:16:09.161Z,12.14
2017-04-16T05:16:49.643Z,12.17
2017-04-16T05:17:30.181Z,12.16
2017-04-16T05:18:10.622Z,12.09
2017-04-16T05:18:51.172Z,12.28
2017-04-16T05:19:31.596Z,12.28
2017-04-16T05:20:12.118Z,12.28
2017-04-16T05:20:52.612Z,12.32
2017-04-16T05:21:33.141Z,12.29
2017-04-16T05:22:13.625Z,12.24
2017-04-16T05:22:54.167Z,12.28
2017-04-16T05:23:34.648Z,12.31
2017-04-16T05:24:15.156Z,12.24
2017-04-16T05:24:55.617Z,12.31
2017-04-16T05:25:36.095Z,12.19
2017-04-16T05:26:16.622Z,12.28
2017-04-16T05:26:57.132Z,12.21
2017-04-16T05:27:37.620Z,12.17
2017-04-16T05:28:18.079Z,12.13
2017-04-16T05:28:58.583Z,12.17
2017-04-16T05:29:39.128Z,12.31
2017-04-16T05:30:19.607Z,12.28
2017-04-16T05:31:00.091Z,12.21
2017-04-16T05:31:40.598Z,12.16
2017-04-16T05:32:21.123Z,12.14
2017-04-16T05:33:01.593Z,12.14
2017-04-16T05:33:42.088Z,12.27
2017-04-16T05:34:22.767Z,12.2
2017-04-16T05:35:03.266Z,12.28
2017-04-16T05:35:43.776Z,12.2
2017-04-16T05:36:24.254Z,12.28
2017-04-16T05:37:04.813Z,12.13
2017-04-16T05:37:45.274Z,12.23
2017-04-16T05:38:25.744Z,12.21
2017-04-16T05:39:06.217Z,12.1
2017-04-16T05:39:46.708Z,12.09
2017-04-16T05:40:27.208Z,12.12
2017-04-16T05:41:07.713Z,12.17
2017-04-16T05:41:48.207Z,12.17
2017-04-16T05:42:28.696Z,12.19
2017-04-16T05:43:09.227Z,12.12
2017-04-16T05:43:49.700Z,12.14
2017-04-16T05:44:30.253Z,12.1
2017-04-16T05:45:10.817Z,12.09
2017-04-16T05:45:51.327Z,11.99
2017-04-16T05:46:31.810Z,12.02
2017-04-16T05:47:12.361Z,12.01
2017-04-16T05:47:52.840Z,12.07
2017-04-16T05:48:33.283Z,12.09
2017-04-16T05:49:13.774Z,12.28
2017-04-16T05:49:54.274Z,12.46
2017-04-16T05:50:34.786Z,12.31
2017-04-16T05:51:15.262Z,12.41
2017-04-16T05:51:55.756Z,12.42
2017-04-16T05:52:36.257Z,12.47
2017-04-16T05:53:16.760Z,12.41
2017-04-16T05:53:57.250Z,12.39
2017-04-16T05:54:37.731Z,12.49
2017-04-16T05:55:18.190Z,12.41
2017-04-16T05:55:58.697Z,12.39
2017-04-16T05:56:39.213Z,12.39
2017-04-16T05:57:19.697Z,12.39
2017-04-16T05:58:00.233Z,12.39
2017-04-16T05:58:40.710Z,12.34
2017-04-16T05:59:21.206Z,12.49
2017-04-16T06:00:03.266Z,12.49
2017-04-16T06:00:42.489Z,12.47
2017-04-16T06:01:22.979Z,12.35
2017-04-16T06:02:03.546Z,12.42
2017-04-16T06:02:44.013Z,12.41
2017-04-16T06:03:24.578Z,12.39
2017-04-16T06:04:05.024Z,12.38
2017-04-16T06:04:45.518Z,12.39
2017-04-16T06:05:26.105Z,12.49
2017-04-16T06:06:06.598Z,12.6
2017-04-16T06:06:47.093Z,12.57
2017-04-16T06:07:27.614Z,12.57
2017-04-16T06:08:08.128Z,12.6
2017-04-16T06:08:48.592Z,12.64
2017-04-16T06:09:29.115Z,12.64
2017-04-16T06:10:09.576Z,12.6
2017-04-16T06:10:50.084Z,12.67
2017-04-16T06:11:30.582Z,12.59
2017-04-16T06:12:11.955Z,12.6
2017-04-16T06:12:52.361Z,12.57
2017-04-16T06:13:33.021Z,12.54
2017-04-16T06:14:13.477Z,12.65
2017-04-16T06:14:54.008Z,12.62
2017-04-16T06:15:34.458Z,12.6
2017-04-16T06:16:14.925Z,12.6
2017-04-16T06:16:55.486Z,12.67
2017-04-16T06:17:36.027Z,12.62
2017-04-16T06:18:16.459Z,12.68
2017-04-16T06:18:57.026Z,12.68
2017-04-16T06:19:37.535Z,12.7
2017-04-16T06:20:18.002Z,12.72
2017-04-16T06:20:59.013Z,12.78
2017-04-16T06:22:37.902Z,12.74
2017-04-16T06:23:18.186Z,12.74
2017-04-16T06:23:58.679Z,12.71
2017-04-16T06:24:39.206Z,12.78
2017-04-16T06:25:19.669Z,12.86
2017-04-16T06:26:00.180Z,12.75
2017-04-16T06:26:40.649Z,12.78
2017-04-16T06:27:21.156Z,12.82
2017-04-16T06:28:01.631Z,12.93
2017-04-16T06:28:42.150Z,12.95
2017-04-16T06:29:22.653Z,12.93
2017-04-16T06:30:03.131Z,12.92
2017-04-16T06:30:43.611Z,12.92
2017-04-16T06:31:24.115Z,13.01
2017-04-16T06:32:04.618Z,12.97
2017-04-16T06:32:45.117Z,12.97
2017-04-16T06:33:25.602Z,13
2017-04-16T06:34:06.160Z,13.04
2017-04-16T06:34:46.619Z,13.04
2017-04-16T06:35:27.073Z,12.96
2017-04-16T06:36:07.575Z,13.14
2017-04-16T06:36:48.095Z,13.11
2017-04-16T06:37:28.581Z,13.22
2017-04-16T06:38:09.074Z,13.28
2017-04-16T06:38:49.659Z,13.32
2017-04-16T06:39:31.096Z,13.46
2017-04-16T06:40:11.607Z,13.49
2017-04-16T06:40:52.113Z,13.49
2017-04-16T06:41:32.582Z,13.54
2017-04-16T06:42:13.087Z,13.57
2017-04-16T06:42:53.582Z,13.52
2017-04-16T06:43:34.075Z,13.62
2017-04-16T06:44:14.533Z,13.59
2017-04-16T06:44:55.108Z,13.6
2017-04-16T06:45:35.633Z,13.64
2017-04-16T06:46:16.070Z,13.71
2017-04-16T06:46:56.588Z,13.75
2017-04-16T06:47:37.137Z,13.79
2017-04-16T06:48:17.696Z,13.7
2017-04-16T06:48:58.208Z,13.66
2017-04-16T06:49:38.731Z,13.69
2017-04-16T06:50:19.184Z,13.69
2017-04-16T06:50:59.661Z,13.69
2017-04-16T06:51:40.131Z,13.79
2017-04-16T06:52:21.670Z,13.73
2017-04-16T06:53:01.835Z,13.71
2017-04-16T06:53:42.325Z,13.63
2017-04-16T06:54:22.829Z,13.7
2017-04-16T06:55:03.332Z,13.67
2017-04-16T06:55:43.830Z,13.79
2017-04-16T06:56:24.326Z,13.81
2017-04-16T06:57:04.799Z,13.81
2017-04-16T06:57:45.272Z,13.7
2017-04-16T06:58:25.780Z,13.75
2017-04-16T06:59:06.273Z,13.75
2017-04-16T06:59:46.799Z,13.79
2017-04-16T07:00:27.273Z,13.79
2017-04-16T07:01:07.792Z,13.85
2017-04-16T07:01:48.712Z,13.79
2017-04-16T07:02:29.179Z,13.75
2017-04-16T07:03:09.670Z,13.64
2017-04-16T07:03:50.166Z,13.78
2017-04-16T07:04:30.665Z,13.64
2017-04-16T07:05:11.167Z,13.84
2017-04-16T07:05:51.682Z,13.91
2017-04-16T07:06:32.388Z,13.99
2017-04-16T07:07:12.856Z,13.87
2017-04-16T07:07:53.362Z,13.88
2017-04-16T07:08:33.807Z,13.87
2017-04-16T07:09:14.350Z,13.89
2017-04-16T07:09:54.822Z,13.77
2017-04-16T07:10:35.302Z,13.64
2017-04-16T07:11:15.843Z,13.7
2017-04-16T07:11:56.326Z,13.75
2017-04-16T07:12:36.850Z,13.7
2017-04-16T07:13:18.743Z,13.7
2017-04-16T07:13:59.951Z,13.73
2017-04-16T07:14:41.364Z,13.7
2017-04-16T07:15:21.869Z,13.63
2017-04-16T07:16:02.339Z,13.62
2017-04-16T07:16:42.886Z,13.66
2017-04-16T07:17:23.389Z,13.57
2017-04-16T07:18:03.855Z,13.52
2017-04-16T07:18:44.350Z,13.59
2017-04-16T07:19:24.876Z,13.54
2017-04-16T07:20:05.314Z,13.57
2017-04-16T07:20:45.792Z,13.63
2017-04-16T07:21:26.313Z,13.66
2017-04-16T07:22:06.814Z,13.69
2017-04-16T07:22:47.282Z,13.78
2017-04-16T07:23:27.858Z,13.85
2017-04-16T07:24:08.353Z,13.82
2017-04-16T07:24:48.869Z,13.99
2017-04-16T07:25:29.393Z,13.96
2017-04-16T07:26:09.893Z,13.88
2017-04-16T07:26:50.344Z,14.03
2017-04-16T07:27:30.857Z,13.91
2017-04-16T07:28:11.403Z,13.81
2017-04-16T07:28:51.911Z,13.88
2017-04-16T07:29:32.416Z,13.91
2017-04-16T07:30:12.988Z,13.91
2017-04-16T07:30:53.531Z,13.99
2017-04-16T07:31:33.993Z,13.96
2017-04-16T07:32:14.631Z,13.89
2017-04-16T07:32:55.039Z,14.04
2017-04-16T07:33:35.502Z,14.04
2017-04-16T07:34:15.973Z,13.99
2017-04-16T07:34:56.500Z,14.1
2017-04-16T07:35:37.020Z,14.09
2017-04-16T07:36:17.479Z,14.15
2017-04-16T07:36:58.164Z,14.04
2017-04-16T07:37:38.822Z,14.17
2017-04-16T07:38:19.318Z,14.14
2017-04-16T07:39:00.053Z,14.09
2017-04-16T07:39:40.777Z,14.04
2017-04-16T07:40:21.343Z,13.97
2017-04-16T07:41:01.860Z,13.88
2017-04-16T07:41:42.326Z,13.85
2017-04-16T07:42:22.851Z,13.79
2017-04-16T07:43:03.312Z,13.89
2017-04-16T07:43:43.879Z,14.06
2017-04-16T07:44:24.445Z,14.09
2017-04-16T07:45:04.874Z,14.07
2017-04-16T07:45:45.387Z,14.14
2017-04-16T07:46:25.906Z,14.1
2017-04-16T07:47:06.357Z,14.2
2017-04-16T07:47:46.853Z,14.04
2017-04-16T07:48:27.338Z,14.12
2017-04-16T07:49:07.872Z,14.14
2017-04-16T07:49:48.369Z,14.18
2017-04-16T07:50:28.881Z,14.29
2017-04-16T07:51:09.514Z,14.28
2017-04-16T07:51:50.106Z,14.21
2017-04-16T07:52:30.584Z,14.25
2017-04-16T07:53:11.082Z,14.43
2017-04-16T07:53:51.542Z,14.4
2017-04-16T07:54:32.407Z,14.37
2017-04-16T07:55:12.730Z,14.35
2017-04-16T07:55:53.278Z,14.36
2017-04-16T07:56:33.781Z,14.25
2017-04-16T07:57:14.274Z,14.21
2017-04-16T07:57:54.772Z,14.22
2017-04-16T07:58:35.259Z,14.15
2017-04-16T07:59:15.765Z,14.21
2017-04-16T07:59:56.309Z,14.15
2017-04-16T08:00:36.746Z,14.18
2017-04-16T08:01:17.231Z,14.28
2017-04-16T08:01:57.713Z,14.36
2017-04-16T08:02:38.329Z,14.24
2017-04-16T08:03:18.686Z,14.28
2017-04-16T08:03:59.217Z,14.25
2017-04-16T08:04:39.667Z,14.15
2017-04-16T08:05:20.329Z,14.15
2017-04-16T08:06:00.881Z,14.14
2017-04-16T08:06:41.634Z,14.14
2017-04-16T08:07:22.085Z,14.17
2017-04-16T08:08:02.717Z,14.21
2017-04-16T08:08:43.219Z,14.2
2017-04-16T08:09:23.705Z,14.17
2017-04-16T08:10:04.187Z,14.24
2017-04-16T08:10:45.537Z,14.17
2017-04-16T08:11:26.016Z,14.24
2017-04-16T08:12:06.527Z,14.27
2017-04-16T08:12:47.020Z,14.15
2017-04-16T08:13:28.398Z,14.03
2017-04-16T08:14:08.809Z,14.1
2017-04-16T08:14:50.586Z,14.21
2017-04-16T08:15:31.326Z,14.22
2017-04-16T08:16:11.957Z,14.27
2017-04-16T08:16:52.538Z,14.35
2017-04-16T08:17:33.030Z,14.29
2017-04-16T08:18:13.764Z,14.29
2017-04-16T08:18:54.262Z,14.2
2017-04-16T08:19:34.713Z,14.28
2017-04-16T08:20:15.234Z,14.29
2017-04-16T08:20:55.748Z,14.24
2017-04-16T08:21:36.582Z,14.25
2017-04-16T08:22:17.182Z,14.39
2017-04-16T08:22:57.667Z,14.36
2017-04-16T08:23:38.177Z,14.43
2017-04-16T08:24:18.765Z,14.52
2017-04-16T08:24:59.271Z,14.5
2017-04-16T08:25:39.767Z,14.45
2017-04-16T08:26:20.422Z,14.43
2017-04-16T08:27:01.109Z,14.46
2017-04-16T08:27:41.446Z,14.37
2017-04-16T08:28:21.991Z,14.27
2017-04-16T08:29:02.493Z,14.29
2017-04-16T08:29:42.968Z,14.36
2017-04-16T08:30:23.503Z,14.25
2017-04-16T08:31:04.020Z,14.25
2017-04-16T08:31:44.453Z,14.29
2017-04-16T08:32:24.963Z,14.35
2017-04-16T08:33:05.502Z,14.35
2017-04-16T08:33:46.007Z,14.36
2017-04-16T08:34:26.489Z,14.36
2017-04-16T08:35:06.967Z,14.47
2017-04-16T08:35:47.448Z,14.45
2017-04-16T08:36:27.897Z,14.51
2017-04-16T08:37:08.453Z,14.51
2017-04-16T08:37:48.895Z,14.5
2017-04-16T08:38:29.366Z,14.37
2017-04-16T08:39:09.896Z,14.5
2017-04-16T08:39:50.476Z,14.46
2017-04-16T08:40:30.973Z,14.51
2017-04-16T08:41:11.527Z,14.54
2017-04-16T08:41:51.985Z,14.58
2017-04-16T08:42:32.482Z,14.54
2017-04-16T08:43:13.036Z,14.69
2017-04-16T08:43:53.558Z,14.7
2017-04-16T08:44:34.069Z,14.78
2017-04-16T08:45:14.571Z,14.72
2017-04-16T08:45:55.100Z,14.73
2017-04-16T08:46:35.547Z,14.86
2017-04-16T08:47:16.119Z,15.03
2017-04-16T08:47:56.610Z,15.03
2017-04-16T08:48:37.099Z,15.06
2017-04-16T08:49:17.577Z,14.88